Flight Number: EUR1345 Duration: 1:30
Departure: Belfast City (EGAC) at 18:30 Distance: 438 Nm
Arrival: Bruxelles National (EBBR) at 20:00 Equipment: A321

Weather Information
Belfast / Harbour, United Kingdom (EGAC) 54-36N 005-53W 0M Oct 19, 2018 - 02:20 PM EDT / 2018.10.19 1820 UTC
Wind: from the S (170 degrees) at 7 MPH (6 KT):0
Visibility: greater than 7 mile(s):0
Sky conditions: mostly cloudy Temperature: 55 F (13 C) Dew Point: 51 F (11 C) Relative Humidity: 87% Pressure (altimeter): 30.24 in. Hg (1024 hPa)
ob: EGAC 191820Z AUTO 17006KT 9999 BKN012/// 13/11 Q1024 cycle: 18
Sunrise: 07:05 Sunset: 17:11 (UTC)

Bruxelles National, Belgium (EBBR) 50-54N 004-32E 58M Oct 19, 2018 - 02:20 PM EDT / 2018.10.19 1820 UTC
Wind: from the N (010 degrees) at 3 MPH (3 KT) (direction variable):0
Visibility: greater than 7 mile(s):0
Sky conditions: mostly cloudy Temperature: 55 F (13 C) Dew Point: 48 F (9 C) Relative Humidity: 76% Pressure (altimeter): 30.30 in. Hg (1026 hPa)
ob: EBBR 191820Z 01003KT 350V060 9999 BKN042 13/09 Q1026 NOSIG cycle: 18
Sunrise: 06:16 Sunset: 16:37 (UTC)

TAF:2018/10/19 18:27 TAF TAF EBBR 191710Z 1918/2024 01005KT 9999 FEW025 SCT040 PROB30 TEMPO 2003/2007 1400 BR BCFG

Previous Pireps for this route
Date Aircraft Flight time Fuel used Landing rate On time
2013-04-03A32101.4110277-104Yes
2013-04-03A3211.4891890No
2013-05-24A32101.4310001-45No
2014-03-05A32102.2216938-637Charter
2014-12-27A32101.1780730Yes
2015-03-30A32101.299448-308Yes
(pireps marked green are flown by you)

Route map